DTTA

Tunis Carthage International Airport

Tunis, Tunisia
METAR DTTA 220630Z 13003KT 100V170 CAVOK 18/14 Q1017 NOSIG
Observed Flight Rules
Apr-22 @ 06:30 UTC (26 minutes ago) Visual Flight Rules
Wind Visibility Clouds
130° at 3 knots 10,000+ meters
  • Clear skies
Temperatures Readings
Current 18°C / 64°F
Dewpoint 14°C / 57°F
Humidity 78%
Altimeter 30.03" Hg
Pressure 1017 hPa
Elevation 4
METAR DTTA 220630Z 13003KT 100V170 CAVOK 18/14 Q1017 NOSIG
Observed Flight Rules
Apr-22 @ 06:30 UTC
(26 minutes ago)
VFR
Wind Visibility
130° at 3 knots 10,000+ meters
Clouds
  • Clear skies
Temperature Dewpoint
18°C / 64°F 14°C / 57°F
Humidity Altimeter Pressure
78% 30.03" Hg 1017 hPa